sensor_id;sensor_type;location;lat;lon;timestamp;pressure;altitude;pressure_sealevel;temperature;humidity
68376;BME280;55318;52.068;5.188;2022-09-28T00:00:28;99632.0;;;9.31;96.25
68376;BME280;55318;52.068;5.188;2022-09-28T00:02:04;99635.0;;;9.42;96.62
68376;BME280;55318;52.068;5.188;2022-09-28T00:03:41;99636.0;;;9.43;97.02
68376;BME280;55318;52.068;5.188;2022-09-28T00:06:54;99636.0;;;9.39;96.5
68376;BME280;55318;52.068;5.188;2022-09-28T00:08:30;99632.0;;;9.32;96.55
68376;BME280;55318;52.068;5.188;2022-09-28T00:10:09;99632.0;;;9.42;96.16
68376;BME280;55318;52.068;5.188;2022-09-28T00:13:23;99632.0;;;9.41;96.16
68376;BME280;55318;52.068;5.188;2022-09-28T00:15:00;99634.0;;;9.49;96.84
68376;BME280;55318;52.068;5.188;2022-09-28T00:16:37;99635.0;;;9.55;96.04
68376;BME280;55318;52.068;5.188;2022-09-28T00:18:16;99635.0;;;9.55;96.22
68376;BME280;55318;52.068;5.188;2022-09-28T00:21:32;99630.0;;;9.43;95.8
68376;BME280;55318;52.068;5.188;2022-09-28T00:23:09;99630.0;;;9.35;96.2
68376;BME280;55318;52.068;5.188;2022-09-28T00:24:46;99631.0;;;9.41;96.03
68376;BME280;55318;52.068;5.188;2022-09-28T00:28:00;99633.0;;;9.43;96.47
68376;BME280;55318;52.068;5.188;2022-09-28T00:29:36;99636.0;;;9.41;96.83
68376;BME280;55318;52.068;5.188;2022-09-28T00:31:12;99633.0;;;9.41;97.01
68376;BME280;55318;52.068;5.188;2022-09-28T00:32:48;99631.0;;;9.39;96.72
68376;BME280;55318;52.068;5.188;2022-09-28T00:36:01;99632.0;;;9.38;96.73
68376;BME280;55318;52.068;5.188;2022-09-28T00:37:38;99631.0;;;9.34;96.77
68376;BME280;55318;52.068;5.188;2022-09-28T00:39:15;99631.0;;;9.33;96.69
68376;BME280;55318;52.068;5.188;2022-09-28T00:42:28;99624.0;;;9.28;96.47
68376;BME280;55318;52.068;5.188;2022-09-28T00:44:39;99621.0;;;9.31;96.67
68376;BME280;55318;52.068;5.188;2022-09-28T00:46:44;99630.0;;;9.31;96.77
68376;BME280;55318;52.068;5.188;2022-09-28T00:48:21;99626.0;;;9.27;97.11
68376;BME280;55318;52.068;5.188;2022-09-28T00:50:00;99625.0;;;9.26;97.02
68376;BME280;55318;52.068;5.188;2022-09-28T00:51:40;99628.0;;;9.25;97.8
68376;BME280;55318;52.068;5.188;2022-09-28T00:55:04;99622.0;;;9.3;97.79
68376;BME280;55318;52.068;5.188;2022-09-28T00:56:44;99619.0;;;9.33;97.54
68376;BME280;55318;52.068;5.188;2022-09-28T00:58:26;99618.0;;;9.34;97.12
68376;BME280;55318;52.068;5.188;2022-09-28T01:00:06;99621.0;;;9.33;97.1
68376;BME280;55318;52.068;5.188;2022-09-28T01:03:19;99619.0;;;9.4;97.56
68376;BME280;55318;52.068;5.188;2022-09-28T01:04:57;99617.0;;;9.48;97.28
68376;BME280;55318;52.068;5.188;2022-09-28T01:06:35;99612.0;;;9.4;97.38
68376;BME280;55318;52.068;5.188;2022-09-28T01:09:53;99611.0;;;9.4;97.52
68376;BME280;55318;52.068;5.188;2022-09-28T01:11:31;99611.0;;;9.39;97.22
68376;BME280;55318;52.068;5.188;2022-09-28T01:13:09;99608.0;;;9.34;97.32
68376;BME280;55318;52.068;5.188;2022-09-28T01:14:45;99605.0;;;9.31;97.2
68376;BME280;55318;52.068;5.188;2022-09-28T01:18:27;99607.0;;;9.27;96.84
68376;BME280;55318;52.068;5.188;2022-09-28T01:20:33;99603.0;;;9.28;96.81
68376;BME280;55318;52.068;5.188;2022-09-28T01:24:35;99602.0;;;9.39;96.87
68376;BME280;55318;52.068;5.188;2022-09-28T01:26:33;99605.0;;;9.32;96.91
68376;BME280;55318;52.068;5.188;2022-09-28T01:29:12;99600.0;;;9.28;96.59
68376;BME280;55318;52.068;5.188;2022-09-28T01:31:00;99600.0;;;9.39;97.0
68376;BME280;55318;52.068;5.188;2022-09-28T01:32:46;99599.0;;;9.35;97.0
68376;BME280;55318;52.068;5.188;2022-09-28T01:34:30;99600.0;;;9.38;96.87
68376;BME280;55318;52.068;5.188;2022-09-28T01:36:14;99599.0;;;9.31;96.69
68376;BME280;55318;52.068;5.188;2022-09-28T01:37:59;99603.0;;;9.27;96.95
68376;BME280;55318;52.068;5.188;2022-09-28T01:41:22;99605.0;;;9.22;96.75
68376;BME280;55318;52.068;5.188;2022-09-28T01:43:03;99599.0;;;9.3;96.37
68376;BME280;55318;52.068;5.188;2022-09-28T01:44:44;99605.0;;;9.33;96.24
68376;BME280;55318;52.068;5.188;2022-09-28T01:46:26;99605.0;;;9.34;96.3
68376;BME280;55318;52.068;5.188;2022-09-28T01:49:45;99608.0;;;9.32;96.13
68376;BME280;55318;52.068;5.188;2022-09-28T01:51:28;99610.0;;;9.33;96.36
68376;BME280;55318;52.068;5.188;2022-09-28T01:53:18;99605.0;;;9.38;96.74
68376;BME280;55318;52.068;5.188;2022-09-28T01:55:01;99602.0;;;9.47;96.52
68376;BME280;55318;52.068;5.188;2022-09-28T01:56:44;99603.0;;;9.52;96.43
68376;BME280;55318;52.068;5.188;2022-09-28T02:00:10;99597.0;;;9.53;96.39
68376;BME280;55318;52.068;5.188;2022-09-28T02:01:52;99596.0;;;9.63;96.13
68376;BME280;55318;52.068;5.188;2022-09-28T02:03:35;99594.0;;;9.64;96.41
68376;BME280;55318;52.068;5.188;2022-09-28T02:05:16;99592.0;;;9.64;96.16
68376;BME280;55318;52.068;5.188;2022-09-28T02:08:42;99592.0;;;9.6;96.36
68376;BME280;55318;52.068;5.188;2022-09-28T02:10:24;99592.0;;;9.64;96.05
68376;BME280;55318;52.068;5.188;2022-09-28T02:12:09;99599.0;;;9.58;96.06
68376;BME280;55318;52.068;5.188;2022-09-28T02:13:55;99599.0;;;9.63;96.17
68376;BME280;55318;52.068;5.188;2022-09-28T02:15:39;99595.0;;;9.56;95.99
68376;BME280;55318;52.068;5.188;2022-09-28T02:18:56;99599.0;;;9.57;95.82
68376;BME280;55318;52.068;5.188;2022-09-28T02:20:35;99605.0;;;9.65;95.75
68376;BME280;55318;52.068;5.188;2022-09-28T02:22:20;99596.0;;;9.67;95.87
68376;BME280;55318;52.068;5.188;2022-09-28T02:24:02;99595.0;;;9.71;95.59
68376;BME280;55318;52.068;5.188;2022-09-28T02:27:30;99595.0;;;9.73;95.63
68376;BME280;55318;52.068;5.188;2022-09-28T02:29:11;99594.0;;;9.76;95.93
68376;BME280;55318;52.068;5.188;2022-09-28T02:30:48;99598.0;;;9.89;95.36
68376;BME280;55318;52.068;5.188;2022-09-28T02:32:25;99594.0;;;9.84;95.32
68376;BME280;55318;52.068;5.188;2022-09-28T02:35:42;99596.0;;;9.86;95.34
68376;BME280;55318;52.068;5.188;2022-09-28T02:37:21;99598.0;;;9.89;95.2
68376;BME280;55318;52.068;5.188;2022-09-28T02:38:58;99602.0;;;9.96;95.15
68376;BME280;55318;52.068;5.188;2022-09-28T02:40:35;99599.0;;;9.92;95.42
68376;BME280;55318;52.068;5.188;2022-09-28T02:44:01;99595.0;;;9.84;95.38
68376;BME280;55318;52.068;5.188;2022-09-28T02:45:51;99598.0;;;9.9;94.97
68376;BME280;55318;52.068;5.188;2022-09-28T02:47:41;99599.0;;;10.03;94.5
68376;BME280;55318;52.068;5.188;2022-09-28T02:49:31;99599.0;;;9.98;94.7
68376;BME280;55318;52.068;5.188;2022-09-28T02:51:19;99601.0;;;9.9;94.85
68376;BME280;55318;52.068;5.188;2022-09-28T02:53:15;99601.0;;;9.88;95.16
68376;BME280;55318;52.068;5.188;2022-09-28T02:55:59;99599.0;;;9.89;95.06
68376;BME280;55318;52.068;5.188;2022-09-28T02:57:53;99600.0;;;9.86;94.66
68376;BME280;55318;52.068;5.188;2022-09-28T02:59:45;99603.0;;;9.73;95.28
68376;BME280;55318;52.068;5.188;2022-09-28T03:01:28;99605.0;;;9.71;95.52
68376;BME280;55318;52.068;5.188;2022-09-28T03:05:10;99605.0;;;9.73;95.33
68376;BME280;55318;52.068;5.188;2022-09-28T03:06:53;99605.0;;;9.69;95.73
68376;BME280;55318;52.068;5.188;2022-09-28T03:08:37;99601.0;;;9.76;95.6
68376;BME280;55318;52.068;5.188;2022-09-28T03:12:07;99606.0;;;9.84;94.76
68376;BME280;55318;52.068;5.188;2022-09-28T03:15:23;99605.0;;;9.85;94.85
68376;BME280;55318;52.068;5.188;2022-09-28T03:17:00;99606.0;;;9.85;94.98
68376;BME280;55318;52.068;5.188;2022-09-28T03:18:36;99609.0;;;9.84;95.05
68376;BME280;55318;52.068;5.188;2022-09-28T03:20:13;99613.0;;;9.83;95.72
68376;BME280;55318;52.068;5.188;2022-09-28T03:23:26;99619.0;;;9.89;95.35
68376;BME280;55318;52.068;5.188;2022-09-28T03:25:03;99626.0;;;9.82;95.16
68376;BME280;55318;52.068;5.188;2022-09-28T03:26:40;99618.0;;;9.85;95.49
68376;BME280;55318;52.068;5.188;2022-09-28T03:29:52;99625.0;;;9.82;95.93
68376;BME280;55318;52.068;5.188;2022-09-28T03:31:29;99622.0;;;9.89;95.17
68376;BME280;55318;52.068;5.188;2022-09-28T03:33:06;99619.0;;;9.89;95.27
68376;BME280;55318;52.068;5.188;2022-09-28T03:36:18;99618.0;;;9.93;95.15
68376;BME280;55318;52.068;5.188;2022-09-28T03:37:55;99620.0;;;9.98;95.12
68376;BME280;55318;52.068;5.188;2022-09-28T03:39:31;99617.0;;;9.97;95.62
68376;BME280;55318;52.068;5.188;2022-09-28T03:41:08;99613.0;;;10.03;94.98
68376;BME280;55318;52.068;5.188;2022-09-28T03:44:22;99613.0;;;9.98;95.09
68376;BME280;55318;52.068;5.188;2022-09-28T03:45:59;99612.0;;;10.0;95.54
68376;BME280;55318;52.068;5.188;2022-09-28T03:47:36;99610.0;;;9.98;95.08
68376;BME280;55318;52.068;5.188;2022-09-28T03:52:27;99607.0;;;9.94;94.71
68376;BME280;55318;52.068;5.188;2022-09-28T03:54:04;99603.0;;;9.91;94.52
68376;BME280;55318;52.068;5.188;2022-09-28T03:57:16;99605.0;;;9.85;95.06
68376;BME280;55318;52.068;5.188;2022-09-28T03:58:52;99605.0;;;9.75;95.03
68376;BME280;55318;52.068;5.188;2022-09-28T04:00:29;99603.0;;;9.8;94.81
68376;BME280;55318;52.068;5.188;2022-09-28T04:02:05;99601.0;;;9.73;95.08
68376;BME280;55318;52.068;5.188;2022-09-28T04:06:55;99607.0;;;9.51;94.63
68376;BME280;55318;52.068;5.188;2022-09-28T04:08:32;99608.0;;;9.56;95.95
68376;BME280;55318;52.068;5.188;2022-09-28T04:13:22;99610.0;;;9.72;95.12
68376;BME280;55318;52.068;5.188;2022-09-28T04:14:58;99609.0;;;9.63;95.29
68376;BME280;55318;52.068;5.188;2022-09-28T04:18:11;99613.0;;;9.52;95.19
68376;BME280;55318;52.068;5.188;2022-09-28T04:19:47;99612.0;;;9.49;95.68
68376;BME280;55318;52.068;5.188;2022-09-28T04:21:24;99615.0;;;9.44;95.4
68376;BME280;55318;52.068;5.188;2022-09-28T04:22:59;99613.0;;;9.48;95.61
68376;BME280;55318;52.068;5.188;2022-09-28T04:26:14;99613.0;;;9.39;95.95
68376;BME280;55318;52.068;5.188;2022-09-28T04:30:45;99616.0;;;9.34;95.92
68376;BME280;55318;52.068;5.188;2022-09-28T04:32:21;99620.0;;;9.23;95.69
68376;BME280;55318;52.068;5.188;2022-09-28T04:33:58;99622.0;;;9.13;95.72
68376;BME280;55318;52.068;5.188;2022-09-28T04:35:34;99623.0;;;9.21;95.79
68376;BME280;55318;52.068;5.188;2022-09-28T04:38:46;99624.0;;;9.19;96.04
68376;BME280;55318;52.068;5.188;2022-09-28T04:40:22;99624.0;;;9.26;95.71
68376;BME280;55318;52.068;5.188;2022-09-28T04:45:11;99627.0;;;9.28;95.62
68376;BME280;55318;52.068;5.188;2022-09-28T04:46:47;99632.0;;;9.23;96.33
68376;BME280;55318;52.068;5.188;2022-09-28T04:48:24;99635.0;;;9.16;96.17
68376;BME280;55318;52.068;5.188;2022-09-28T04:51:36;99633.0;;;9.06;95.82
68376;BME280;55318;52.068;5.188;2022-09-28T04:53:12;99634.0;;;9.05;96.18
68376;BME280;55318;52.068;5.188;2022-09-28T04:54:48;99630.0;;;9.07;96.45
68376;BME280;55318;52.068;5.188;2022-09-28T04:56:25;99625.0;;;9.22;96.4
68376;BME280;55318;52.068;5.188;2022-09-28T04:59:40;99624.0;;;9.34;96.13
68376;BME280;55318;52.068;5.188;2022-09-28T05:01:17;99630.0;;;9.34;96.62
68376;BME280;55318;52.068;5.188;2022-09-28T05:02:54;99628.0;;;9.25;96.41
68376;BME280;55318;52.068;5.188;2022-09-28T05:06:08;99626.0;;;9.27;96.42
68376;BME280;55318;52.068;5.188;2022-09-28T05:07:45;99625.0;;;9.23;96.21
68376;BME280;55318;52.068;5.188;2022-09-28T05:09:22;99623.0;;;9.11;96.16
68376;BME280;55318;52.068;5.188;2022-09-28T05:12:36;99631.0;;;9.16;96.22
68376;BME280;55318;52.068;5.188;2022-09-28T05:14:12;99625.0;;;9.13;96.09
68376;BME280;55318;52.068;5.188;2022-09-28T05:15:51;99625.0;;;9.16;96.18
68376;BME280;55318;52.068;5.188;2022-09-28T05:17:28;99631.0;;;9.16;96.25
68376;BME280;55318;52.068;5.188;2022-09-28T05:20:41;99631.0;;;9.17;96.01
68376;BME280;55318;52.068;5.188;2022-09-28T05:22:18;99634.0;;;9.13;96.14
68376;BME280;55318;52.068;5.188;2022-09-28T05:23:55;99633.0;;;9.1;96.28
68376;BME280;55318;52.068;5.188;2022-09-28T05:27:09;99640.0;;;9.22;96.65
68376;BME280;55318;52.068;5.188;2022-09-28T05:28:45;99644.0;;;9.17;96.99
68376;BME280;55318;52.068;5.188;2022-09-28T05:30:21;99649.0;;;9.13;96.69
68376;BME280;55318;52.068;5.188;2022-09-28T05:32:00;99651.0;;;9.15;96.99
68376;BME280;55318;52.068;5.188;2022-09-28T05:35:14;99652.0;;;9.19;96.57
68376;BME280;55318;52.068;5.188;2022-09-28T05:36:50;99656.0;;;9.23;96.51
68376;BME280;55318;52.068;5.188;2022-09-28T05:38:26;99655.0;;;9.22;96.58
68376;BME280;55318;52.068;5.188;2022-09-28T05:41:40;99650.0;;;9.26;95.85
68376;BME280;55318;52.068;5.188;2022-09-28T05:43:17;99645.0;;;9.21;95.66
68376;BME280;55318;52.068;5.188;2022-09-28T05:44:52;99648.0;;;9.22;95.93
68376;BME280;55318;52.068;5.188;2022-09-28T05:48:05;99649.0;;;9.15;96.03
68376;BME280;55318;52.068;5.188;2022-09-28T05:49:41;99650.0;;;9.11;96.08
68376;BME280;55318;52.068;5.188;2022-09-28T05:51:19;99653.0;;;9.05;96.56
68376;BME280;55318;52.068;5.188;2022-09-28T05:52:58;99651.0;;;9.06;96.36
68376;BME280;55318;52.068;5.188;2022-09-28T05:56:11;99655.0;;;9.06;96.54
68376;BME280;55318;52.068;5.188;2022-09-28T05:57:47;99650.0;;;9.11;96.55
68376;BME280;55318;52.068;5.188;2022-09-28T05:59:23;99648.0;;;9.16;96.72
68376;BME280;55318;52.068;5.188;2022-09-28T06:02:35;99655.0;;;9.1;96.7
68376;BME280;55318;52.068;5.188;2022-09-28T06:04:12;99649.0;;;8.98;96.65
68376;BME280;55318;52.068;5.188;2022-09-28T06:05:48;99653.0;;;8.91;96.48
68376;BME280;55318;52.068;5.188;2022-09-28T06:09:01;99650.0;;;8.85;96.23
68376;BME280;55318;52.068;5.188;2022-09-28T06:10:37;99650.0;;;8.88;96.67
68376;BME280;55318;52.068;5.188;2022-09-28T06:12:15;99652.0;;;8.85;96.66
68376;BME280;55318;52.068;5.188;2022-09-28T06:13:52;99646.0;;;8.88;96.58
68376;BME280;55318;52.068;5.188;2022-09-28T06:17:07;99649.0;;;9.01;97.26
68376;BME280;55318;52.068;5.188;2022-09-28T06:18:43;99648.0;;;9.14;96.85
68376;BME280;55318;52.068;5.188;2022-09-28T06:20:20;99649.0;;;9.22;97.06
68376;BME280;55318;52.068;5.188;2022-09-28T06:23:32;99648.0;;;9.18;96.89
68376;BME280;55318;52.068;5.188;2022-09-28T06:25:08;99643.0;;;9.31;96.96
68376;BME280;55318;52.068;5.188;2022-09-28T06:26:44;99640.0;;;9.48;97.27
68376;BME280;55318;52.068;5.188;2022-09-28T06:29:56;99643.0;;;9.56;97.32
68376;BME280;55318;52.068;5.188;2022-09-28T06:31:33;99644.0;;;9.73;97.08
68376;BME280;55318;52.068;5.188;2022-09-28T06:33:12;99645.0;;;9.88;96.68
68376;BME280;55318;52.068;5.188;2022-09-28T06:34:49;99647.0;;;10.07;96.78
68376;BME280;55318;52.068;5.188;2022-09-28T06:38:03;99650.0;;;10.23;95.88
68376;BME280;55318;52.068;5.188;2022-09-28T06:39:41;99652.0;;;10.34;95.67
68376;BME280;55318;52.068;5.188;2022-09-28T06:41:18;99657.0;;;10.42;94.71
68376;BME280;55318;52.068;5.188;2022-09-28T06:44:33;99656.0;;;10.76;95.06
68376;BME280;55318;52.068;5.188;2022-09-28T06:46:09;99660.0;;;10.9;94.48
68376;BME280;55318;52.068;5.188;2022-09-28T06:47:45;99668.0;;;11.17;93.94
68376;BME280;55318;52.068;5.188;2022-09-28T06:49:21;99667.0;;;11.31;93.21
68376;BME280;55318;52.068;5.188;2022-09-28T06:52:34;99660.0;;;11.38;91.9
68376;BME280;55318;52.068;5.188;2022-09-28T06:54:10;99662.0;;;11.65;90.39
68376;BME280;55318;52.068;5.188;2022-09-28T06:55:48;99666.0;;;11.78;91.55
68376;BME280;55318;52.068;5.188;2022-09-28T06:59:00;99669.0;;;11.9;90.97
68376;BME280;55318;52.068;5.188;2022-09-28T07:00:39;99673.0;;;12.08;90.74
68376;BME280;55318;52.068;5.188;2022-09-28T07:02:15;99666.0;;;12.21;90.62
68376;BME280;55318;52.068;5.188;2022-09-28T07:05:30;99673.0;;;12.25;89.36
68376;BME280;55318;52.068;5.188;2022-09-28T07:07:08;99676.0;;;12.46;89.35
68376;BME280;55318;52.068;5.188;2022-09-28T07:08:46;99686.0;;;12.53;89.7
68376;BME280;55318;52.068;5.188;2022-09-28T07:10:24;99688.0;;;12.62;87.99
68376;BME280;55318;52.068;5.188;2022-09-28T07:13:39;99691.0;;;12.77;87.76
68376;BME280;55318;52.068;5.188;2022-09-28T07:15:16;99691.0;;;12.94;87.38
68376;BME280;55318;52.068;5.188;2022-09-28T07:16:55;99691.0;;;13.04;86.1
68376;BME280;55318;52.068;5.188;2022-09-28T07:20:08;99696.0;;;13.09;86.59
68376;BME280;55318;52.068;5.188;2022-09-28T07:21:45;99702.0;;;13.22;85.29
68376;BME280;55318;52.068;5.188;2022-09-28T07:23:21;99698.0;;;13.32;85.37
68376;BME280;55318;52.068;5.188;2022-09-28T07:24:58;99703.0;;;13.47;85.07
68376;BME280;55318;52.068;5.188;2022-09-28T07:28:10;99706.0;;;13.54;85.38
68376;BME280;55318;52.068;5.188;2022-09-28T07:29:47;99709.0;;;13.6;86.16
68376;BME280;55318;52.068;5.188;2022-09-28T07:31:24;99708.0;;;13.82;84.64
68376;BME280;55318;52.068;5.188;2022-09-28T07:34:42;99710.0;;;13.93;84.02
68376;BME280;55318;52.068;5.188;2022-09-28T07:36:20;99713.0;;;14.07;84.81
68376;BME280;55318;52.068;5.188;2022-09-28T07:37:59;99716.0;;;14.13;83.77
68376;BME280;55318;52.068;5.188;2022-09-28T07:41:10;99720.0;;;14.44;80.16
68376;BME280;55318;52.068;5.188;2022-09-28T07:42:47;99713.0;;;14.53;82.61
68376;BME280;55318;52.068;5.188;2022-09-28T07:44:24;99716.0;;;14.77;79.94
68376;BME280;55318;52.068;5.188;2022-09-28T07:46:00;99721.0;;;14.79;82.39
68376;BME280;55318;52.068;5.188;2022-09-28T07:49:14;99721.0;;;15.01;80.77
68376;BME280;55318;52.068;5.188;2022-09-28T07:50:53;99717.0;;;15.15;81.23
68376;BME280;55318;52.068;5.188;2022-09-28T07:52:29;99718.0;;;15.24;80.38
68376;BME280;55318;52.068;5.188;2022-09-28T07:55:42;99721.0;;;15.52;78.94
68376;BME280;55318;52.068;5.188;2022-09-28T07:57:18;99718.0;;;15.57;77.94
68376;BME280;55318;52.068;5.188;2022-09-28T07:58:55;99721.0;;;15.84;77.03
68376;BME280;55318;52.068;5.188;2022-09-28T08:00:31;99722.0;;;15.93;78.91
68376;BME280;55318;52.068;5.188;2022-09-28T08:03:46;99723.0;;;16.09;75.31
68376;BME280;55318;52.068;5.188;2022-09-28T08:05:22;99727.0;;;16.28;75.72
68376;BME280;55318;52.068;5.188;2022-09-28T08:06:59;99733.0;;;16.45;74.69
68376;BME280;55318;52.068;5.188;2022-09-28T08:10:12;99731.0;;;16.55;73.78
68376;BME280;55318;52.068;5.188;2022-09-28T08:11:48;99735.0;;;16.78;71.62
68376;BME280;55318;52.068;5.188;2022-09-28T08:13:25;99731.0;;;16.78;74.27
68376;BME280;55318;52.068;5.188;2022-09-28T08:16:37;99734.0;;;16.9;71.74
68376;BME280;55318;52.068;5.188;2022-09-28T08:18:13;99742.0;;;17.05;69.77
68376;BME280;55318;52.068;5.188;2022-09-28T08:22:43;99748.0;;;17.18;67.59
68376;BME280;55318;52.068;5.188;2022-09-28T08:24:20;99749.0;;;17.16;68.75
68376;BME280;55318;52.068;5.188;2022-09-28T08:25:57;99750.0;;;17.31;69.73
68376;BME280;55318;52.068;5.188;2022-09-28T08:29:10;99747.0;;;17.45;72.74
68376;BME280;55318;52.068;5.188;2022-09-28T08:30:47;99749.0;;;17.53;67.17
68376;BME280;55318;52.068;5.188;2022-09-28T08:32:23;99755.0;;;17.61;67.61
68376;BME280;55318;52.068;5.188;2022-09-28T08:33:59;99749.0;;;17.52;69.97
68376;BME280;55318;52.068;5.188;2022-09-28T08:37:12;99758.0;;;17.86;72.24
68376;BME280;55318;52.068;5.188;2022-09-28T08:38:49;99755.0;;;18.02;71.89
68376;BME280;55318;52.068;5.188;2022-09-28T08:40:25;99757.0;;;18.0;69.19
68376;BME280;55318;52.068;5.188;2022-09-28T08:44:03;99757.0;;;18.11;69.87
68376;BME280;55318;52.068;5.188;2022-09-28T08:45:46;99758.0;;;18.2;69.55
68376;BME280;55318;52.068;5.188;2022-09-28T08:51:01;99759.0;;;18.2;73.95
68376;BME280;55318;52.068;5.188;2022-09-28T08:52:54;99762.0;;;18.27;70.7
68376;BME280;55318;52.068;5.188;2022-09-28T08:56:29;99765.0;;;18.29;67.55
68376;BME280;55318;52.068;5.188;2022-09-28T08:59:52;99776.0;;;17.34;70.41
68376;BME280;55318;52.068;5.188;2022-09-28T09:01:33;99775.0;;;17.23;67.59
68376;BME280;55318;52.068;5.188;2022-09-28T09:04:53;99778.0;;;16.78;67.66
68376;BME280;55318;52.068;5.188;2022-09-28T09:06:43;99781.0;;;16.93;69.78
68376;BME280;55318;52.068;5.188;2022-09-28T09:08:38;99784.0;;;16.66;72.87
68376;BME280;55318;52.068;5.188;2022-09-28T09:10:33;99786.0;;;16.36;74.55
68376;BME280;55318;52.068;5.188;2022-09-28T09:12:25;99785.0;;;16.15;75.06
68376;BME280;55318;52.068;5.188;2022-09-28T09:14:20;99784.0;;;16.43;74.44
68376;BME280;55318;52.068;5.188;2022-09-28T09:17:08;99787.0;;;16.86;76.5
68376;BME280;55318;52.068;5.188;2022-09-28T09:18:54;99789.0;;;17.3;77.97
68376;BME280;55318;52.068;5.188;2022-09-28T09:20:43;99788.0;;;17.45;73.47
68376;BME280;55318;52.068;5.188;2022-09-28T09:22:37;99784.0;;;17.73;70.02
68376;BME280;55318;52.068;5.188;2022-09-28T09:24:23;99784.0;;;17.89;67.8
68376;BME280;55318;52.068;5.188;2022-09-28T09:27:59;99796.0;;;17.96;66.83
68376;BME280;55318;52.068;5.188;2022-09-28T09:29:55;99792.0;;;18.02;67.3
68376;BME280;55318;52.068;5.188;2022-09-28T09:31:47;99797.0;;;17.71;66.66
68376;BME280;55318;52.068;5.188;2022-09-28T09:33:43;99798.0;;;17.52;68.48
68376;BME280;55318;52.068;5.188;2022-09-28T09:35:48;99789.0;;;17.68;70.5
68376;BME280;55318;52.068;5.188;2022-09-28T09:38:31;99788.0;;;17.84;71.91
68376;BME280;55318;52.068;5.188;2022-09-28T09:40:27;99793.0;;;17.86;67.28
68376;BME280;55318;52.068;5.188;2022-09-28T09:42:21;99798.0;;;17.46;66.3
68376;BME280;55318;52.068;5.188;2022-09-28T09:44:13;99793.0;;;17.45;70.11
68376;BME280;55318;52.068;5.188;2022-09-28T09:46:16;99794.0;;;17.66;69.44
68376;BME280;55318;52.068;5.188;2022-09-28T09:47:58;99795.0;;;17.96;68.63
68376;BME280;55318;52.068;5.188;2022-09-28T09:49:41;99796.0;;;18.02;65.84
68376;BME280;55318;52.068;5.188;2022-09-28T09:53:05;99797.0;;;17.78;65.97
68376;BME280;55318;52.068;5.188;2022-09-28T09:54:54;99792.0;;;17.66;64.05
68376;BME280;55318;52.068;5.188;2022-09-28T09:56:36;99797.0;;;17.29;66.24
68376;BME280;55318;52.068;5.188;2022-09-28T09:58:20;99799.0;;;17.07;66.94
68376;BME280;55318;52.068;5.188;2022-09-28T10:00:01;99799.0;;;16.7;68.62
68376;BME280;55318;52.068;5.188;2022-09-28T10:03:21;99802.0;;;16.75;66.86
68376;BME280;55318;52.068;5.188;2022-09-28T10:05:01;99798.0;;;16.61;70.0
68376;BME280;55318;52.068;5.188;2022-09-28T10:06:43;99798.0;;;16.77;69.27
68376;BME280;55318;52.068;5.188;2022-09-28T10:08:20;99796.0;;;17.04;69.12
68376;BME280;55318;52.068;5.188;2022-09-28T10:11:41;99797.0;;;17.04;67.81
68376;BME280;55318;52.068;5.188;2022-09-28T10:13:18;99795.0;;;17.2;70.09
68376;BME280;55318;52.068;5.188;2022-09-28T10:14:55;99793.0;;;17.16;66.77
68376;BME280;55318;52.068;5.188;2022-09-28T10:16:32;99792.0;;;17.16;65.86
68376;BME280;55318;52.068;5.188;2022-09-28T10:19:50;99797.0;;;17.22;70.88
68376;BME280;55318;52.068;5.188;2022-09-28T10:23:08;99796.0;;;17.2;65.66
68376;BME280;55318;52.068;5.188;2022-09-28T10:26:34;99791.0;;;17.11;65.64
68376;BME280;55318;52.068;5.188;2022-09-28T10:28:17;99796.0;;;17.02;64.91
68376;BME280;55318;52.068;5.188;2022-09-28T10:29:58;99797.0;;;17.03;68.13
68376;BME280;55318;52.068;5.188;2022-09-28T10:31:39;99797.0;;;17.0;66.33
68376;BME280;55318;52.068;5.188;2022-09-28T10:33:33;99800.0;;;16.81;67.45
68376;BME280;55318;52.068;5.188;2022-09-28T10:37:00;99802.0;;;16.77;68.0
68376;BME280;55318;52.068;5.188;2022-09-28T10:38:37;99805.0;;;16.81;68.06
68376;BME280;55318;52.068;5.188;2022-09-28T10:40:27;99806.0;;;16.72;65.52
68376;BME280;55318;52.068;5.188;2022-09-28T10:42:26;99801.0;;;16.45;66.19
68376;BME280;55318;52.068;5.188;2022-09-28T10:44:11;99798.0;;;16.43;68.47
68376;BME280;55318;52.068;5.188;2022-09-28T10:46:02;99796.0;;;16.39;63.18
68376;BME280;55318;52.068;5.188;2022-09-28T10:49:21;99799.0;;;16.34;68.05
68376;BME280;55318;52.068;5.188;2022-09-28T10:52:40;99799.0;;;16.45;64.52
68376;BME280;55318;52.068;5.188;2022-09-28T10:54:19;99799.0;;;16.57;66.72
68376;BME280;55318;52.068;5.188;2022-09-28T10:57:36;99799.0;;;16.84;62.2
68376;BME280;55318;52.068;5.188;2022-09-28T10:59:23;99801.0;;;16.82;64.35
68376;BME280;55318;52.068;5.188;2022-09-28T11:01:23;99805.0;;;16.91;64.16
68376;BME280;55318;52.068;5.188;2022-09-28T11:03:01;99799.0;;;16.95;62.01
68376;BME280;55318;52.068;5.188;2022-09-28T11:08:05;99799.0;;;16.91;63.29
68376;BME280;55318;52.068;5.188;2022-09-28T11:09:45;99793.0;;;16.96;62.67
68376;BME280;55318;52.068;5.188;2022-09-28T11:11:23;99790.0;;;16.98;61.11
68376;BME280;55318;52.068;5.188;2022-09-28T11:16:20;99792.0;;;16.88;67.0
68376;BME280;55318;52.068;5.188;2022-09-28T11:18:18;99795.0;;;16.88;62.29
68376;BME280;55318;52.068;5.188;2022-09-28T11:19:55;99797.0;;;16.57;64.38
68376;BME280;55318;52.068;5.188;2022-09-28T11:21:40;99796.0;;;16.48;65.72
68376;BME280;55318;52.068;5.188;2022-09-28T11:25:30;99800.0;;;16.47;70.36
68376;BME280;55318;52.068;5.188;2022-09-28T11:27:18;99798.0;;;16.16;73.86
68376;BME280;55318;52.068;5.188;2022-09-28T11:28:56;99794.0;;;15.7;74.98
68376;BME280;55318;52.068;5.188;2022-09-28T11:32:22;99801.0;;;15.22;82.78
68376;BME280;55318;52.068;5.188;2022-09-28T11:34:04;99801.0;;;15.17;83.33
68376;BME280;55318;52.068;5.188;2022-09-28T11:37:44;99796.0;;;15.01;77.59
68376;BME280;55318;52.068;5.188;2022-09-28T11:39:30;99799.0;;;14.83;76.73
68376;BME280;55318;52.068;5.188;2022-09-28T11:41:38;99801.0;;;14.62;80.19
68376;BME280;55318;52.068;5.188;2022-09-28T11:45:25;99799.0;;;14.57;80.91
68376;BME280;55318;52.068;5.188;2022-09-28T11:49:16;99805.0;;;14.74;86.26
68376;BME280;55318;52.068;5.188;2022-09-28T11:51:04;99808.0;;;14.92;86.35
68376;BME280;55318;52.068;5.188;2022-09-28T11:52:47;99807.0;;;14.91;84.8
68376;BME280;55318;52.068;5.188;2022-09-28T11:56:21;99807.0;;;15.01;84.39
68376;BME280;55318;52.068;5.188;2022-09-28T11:59:55;99805.0;;;14.94;81.99